createdAt,value
2023-03-24T00:00:09.000Z,996.6
2023-03-24T00:01:25.918Z,996.6
2023-03-24T00:02:42.071Z,996.5
2023-03-24T00:03:57.000Z,996.4
2023-03-24T00:05:14.362Z,996.4
2023-03-24T00:06:30.000Z,996.6
2023-03-24T00:07:46.000Z,996.5
2023-03-24T00:09:02.000Z,996.5
2023-03-24T00:10:18.000Z,996.5
2023-03-24T00:11:34.000Z,996.5
2023-03-24T00:12:51.000Z,996.4
2023-03-24T00:14:07.000Z,996.4
2023-03-24T00:15:23.000Z,996.4
2023-03-24T00:16:38.000Z,996.3
2023-03-24T00:17:54.000Z,996.3
2023-03-24T00:19:10.000Z,996.3
2023-03-24T00:20:26.000Z,996.3
2023-03-24T00:21:43.000Z,996.2
2023-03-24T00:22:59.000Z,996.2
2023-03-24T00:24:15.000Z,996.2
2023-03-24T00:25:31.000Z,996.1
2023-03-24T00:26:47.000Z,996.1
2023-03-24T00:28:03.000Z,996
2023-03-24T00:29:19.000Z,996
2023-03-24T00:30:36.000Z,996
2023-03-24T00:31:52.457Z,996
2023-03-24T00:33:07.000Z,996
2023-03-24T00:34:23.000Z,995.9
2023-03-24T00:35:39.000Z,995.9
2023-03-24T00:36:55.000Z,995.9
2023-03-24T00:38:11.000Z,995.9
2023-03-24T00:39:28.000Z,995.9
2023-03-24T00:40:44.000Z,995.9
2023-03-24T00:42:00.650Z,995.9
2023-03-24T00:43:16.000Z,995.9
2023-03-24T00:44:32.000Z,995.8
2023-03-24T00:45:48.000Z,995.8
2023-03-24T00:47:05.000Z,995.8
2023-03-24T00:48:21.000Z,995.8
2023-03-24T00:49:36.000Z,995.8
2023-03-24T00:50:52.000Z,995.7
2023-03-24T00:52:08.836Z,995.7
2023-03-24T00:53:24.983Z,995.8
2023-03-24T00:54:40.000Z,995.7
2023-03-24T00:55:57.000Z,995.6
2023-03-24T00:57:13.000Z,995.6
2023-03-24T00:58:29.000Z,995.6
2023-03-24T00:59:45.000Z,995.5
2023-03-24T01:01:01.000Z,995.5
2023-03-24T01:02:18.007Z,995.4
2023-03-24T01:03:33.000Z,995.5
2023-03-24T01:04:50.000Z,995.4
2023-03-24T01:06:05.000Z,995.4
2023-03-24T01:07:21.000Z,995.4
2023-03-24T01:08:37.000Z,995.3
2023-03-24T01:09:53.907Z,995.3
2023-03-24T01:11:09.000Z,995.2
2023-03-24T01:12:25.000Z,995.3
2023-03-24T01:13:42.351Z,995.2
2023-03-24T01:14:58.000Z,995.3
2023-03-24T01:16:14.000Z,995.2
2023-03-24T01:17:30.000Z,995.1
2023-03-24T01:18:46.000Z,995.1
2023-03-24T01:20:02.000Z,995
2023-03-24T01:21:19.000Z,995.1
2023-03-24T01:22:34.000Z,995.1
2023-03-24T01:23:50.000Z,995
2023-03-24T01:25:06.000Z,994.9
2023-03-24T01:26:22.000Z,994.9
2023-03-24T01:27:38.000Z,994.8
2023-03-24T01:28:54.000Z,994.9
2023-03-24T01:30:11.000Z,994.9
2023-03-24T01:31:27.000Z,994.8
2023-03-24T01:32:43.000Z,994.8
2023-03-24T01:33:59.704Z,994.8
2023-03-24T01:35:15.000Z,994.7
2023-03-24T01:36:31.000Z,994.8
2023-03-24T01:37:47.000Z,994.7
2023-03-24T01:39:03.000Z,994.7
2023-03-24T01:40:19.000Z,994.6
2023-03-24T01:41:35.000Z,994.6
2023-03-24T01:42:51.000Z,994.6
2023-03-24T01:44:07.000Z,994.6
2023-03-24T01:45:23.000Z,994.6
2023-03-24T01:46:39.000Z,994.5
2023-03-24T01:47:56.000Z,994.5
2023-03-24T01:49:12.000Z,994.5
2023-03-24T01:50:28.000Z,994.4
2023-03-24T01:51:44.000Z,994.4
2023-03-24T01:53:00.000Z,994.4
2023-03-24T01:54:16.000Z,994.3
2023-03-24T01:55:32.000Z,994.3
2023-03-24T01:56:48.000Z,994.3
2023-03-24T01:58:04.000Z,994.2
2023-03-24T01:59:20.000Z,994.2
2023-03-24T02:00:36.000Z,994.2
2023-03-24T02:01:52.000Z,994.1
2023-03-24T02:03:08.000Z,994.1
2023-03-24T02:04:25.000Z,994.1
2023-03-24T02:05:41.410Z,994
2023-03-24T02:06:57.000Z,994.1
2023-03-24T02:08:13.000Z,994.1
2023-03-24T02:09:29.000Z,994
2023-03-24T02:10:45.000Z,993.9
2023-03-24T02:12:00.000Z,993.9
2023-03-24T02:13:17.000Z,993.9
2023-03-24T02:14:33.000Z,993.8
2023-03-24T02:15:49.000Z,993.9
2023-03-24T02:17:05.000Z,993.8
2023-03-24T02:18:21.000Z,993.8
2023-03-24T02:19:37.000Z,993.8
2023-03-24T02:20:53.000Z,993.7
2023-03-24T02:22:10.000Z,993.7
2023-03-24T02:23:26.000Z,993.7
2023-03-24T02:25:58.000Z,993.6
2023-03-24T02:27:14.000Z,993.5
2023-03-24T02:28:29.000Z,993.6
2023-03-24T02:29:46.000Z,993.5
2023-03-24T02:31:02.000Z,993.5
2023-03-24T02:32:18.000Z,993.4
2023-03-24T02:33:34.000Z,993.4
2023-03-24T02:34:50.000Z,993.3
2023-03-24T02:36:06.000Z,993.3
2023-03-24T02:37:22.000Z,993.3
2023-03-24T02:38:39.000Z,993.3
2023-03-24T02:39:55.000Z,993.2
2023-03-24T02:41:11.000Z,993.2
2023-03-24T02:42:27.000Z,993.2
2023-03-24T02:43:43.000Z,993.1
2023-03-24T02:44:59.006Z,993.2
2023-03-24T02:46:14.000Z,993.1
2023-03-24T02:47:31.000Z,993.1
2023-03-24T02:48:47.000Z,993
2023-03-24T02:50:03.000Z,993
2023-03-24T02:51:19.000Z,992.9
2023-03-24T02:52:35.000Z,993
2023-03-24T02:53:51.000Z,993
2023-03-24T02:55:07.000Z,992.9
2023-03-24T02:56:24.000Z,992.9
2023-03-24T02:57:40.000Z,992.9
2023-03-24T02:58:56.000Z,992.9
2023-03-24T03:00:12.000Z,992.8
2023-03-24T03:01:27.000Z,992.9
2023-03-24T03:02:43.000Z,992.8
2023-03-24T03:04:00.000Z,992.8
2023-03-24T03:05:16.000Z,992.8
2023-03-24T03:06:32.000Z,992.7
2023-03-24T03:07:48.000Z,992.7
2023-03-24T03:09:04.000Z,992.7
2023-03-24T03:10:20.000Z,992.6
2023-03-24T03:11:36.000Z,992.7
2023-03-24T03:12:53.000Z,992.6
2023-03-24T03:14:09.000Z,992.6
2023-03-24T03:15:25.000Z,992.5
2023-03-24T03:16:41.000Z,992.5
2023-03-24T03:17:56.000Z,992.5
2023-03-24T03:19:12.000Z,992.5
2023-03-24T03:20:28.000Z,992.4
2023-03-24T03:21:45.000Z,992.4
2023-03-24T03:23:01.000Z,992.3
2023-03-24T03:24:17.000Z,992.4
2023-03-24T03:25:33.000Z,992.3
2023-03-24T03:26:49.000Z,992.3
2023-03-24T03:28:05.000Z,992.2
2023-03-24T03:29:21.000Z,992.2
2023-03-24T03:30:38.000Z,992.2
2023-03-24T03:31:54.000Z,992.1
2023-03-24T03:33:10.000Z,992.1
2023-03-24T03:34:25.000Z,992
2023-03-24T03:35:41.000Z,992.1
2023-03-24T03:36:57.000Z,992.1
2023-03-24T03:38:14.225Z,992
2023-03-24T03:39:30.000Z,992
2023-03-24T03:40:46.000Z,992
2023-03-24T03:42:02.000Z,992
2023-03-24T03:43:18.000Z,991.9
2023-03-24T03:44:34.000Z,991.9
2023-03-24T03:45:50.000Z,991.8
2023-03-24T03:47:07.000Z,991.8
2023-03-24T03:48:23.000Z,991.8
2023-03-24T03:49:39.000Z,991.8
2023-03-24T03:50:54.707Z,991.8
2023-03-24T03:52:10.000Z,991.7
2023-03-24T03:53:26.000Z,991.7
2023-03-24T03:54:42.000Z,991.7
2023-03-24T03:55:59.000Z,991.7
2023-03-24T03:57:15.000Z,991.7
2023-03-24T03:58:31.000Z,991.6
2023-03-24T03:59:47.000Z,991.6
2023-03-24T04:01:03.883Z,991.6
2023-03-24T04:02:19.000Z,991.6
2023-03-24T04:03:35.000Z,991.6
2023-03-24T04:04:52.000Z,991.6
2023-03-24T04:06:08.000Z,991.5
2023-03-24T04:07:23.000Z,991.5
2023-03-24T04:08:39.000Z,991.4
2023-03-24T04:09:55.000Z,991.4
2023-03-24T04:11:11.000Z,991.4
2023-03-24T04:12:27.000Z,991.3
2023-03-24T04:13:44.000Z,991.3
2023-03-24T04:14:59.000Z,991.3
2023-03-24T04:16:15.000Z,991.3
2023-03-24T04:17:31.000Z,991.2
2023-03-24T04:18:47.000Z,991.2
2023-03-24T04:20:03.000Z,991.2
2023-03-24T04:21:20.000Z,991.1
2023-03-24T04:22:36.000Z,991.1
2023-03-24T04:23:52.000Z,991.2
2023-03-24T04:25:08.709Z,991.1
2023-03-24T04:26:24.000Z,991
2023-03-24T04:27:40.000Z,991
2023-03-24T04:28:56.000Z,990.9
2023-03-24T04:30:13.000Z,990.9
2023-03-24T04:31:28.000Z,991
2023-03-24T04:32:44.000Z,990.9
2023-03-24T04:34:00.000Z,990.9
2023-03-24T04:35:16.000Z,990.8
2023-03-24T04:36:33.051Z,990.8
2023-03-24T04:37:48.000Z,990.8
2023-03-24T04:39:05.000Z,990.7
2023-03-24T04:40:21.000Z,990.8
2023-03-24T04:41:37.000Z,990.7
2023-03-24T04:42:53.000Z,990.8
2023-03-24T04:44:09.000Z,990.7
2023-03-24T04:45:26.075Z,990.7
2023-03-24T04:46:42.000Z,990.7
2023-03-24T04:47:57.000Z,990.8
2023-03-24T04:49:13.000Z,990.7
2023-03-24T04:50:29.000Z,990.7
2023-03-24T04:51:45.000Z,990.6
2023-03-24T04:53:01.000Z,990.7
2023-03-24T04:54:17.000Z,990.6
2023-03-24T04:55:34.000Z,990.6
2023-03-24T04:56:50.000Z,990.5
2023-03-24T04:58:06.000Z,990.5
2023-03-24T04:59:22.000Z,990.5
2023-03-24T05:00:38.000Z,990.4
2023-03-24T05:01:54.000Z,990.4
2023-03-24T05:03:10.000Z,990.5
2023-03-24T05:04:26.000Z,990.4
2023-03-24T05:05:42.000Z,990.4
2023-03-24T05:06:58.000Z,990.4
2023-03-24T05:08:14.000Z,990.3
2023-03-24T05:09:30.904Z,990.5
2023-03-24T05:10:46.000Z,990.5
2023-03-24T05:12:02.000Z,990.3
2023-03-24T05:13:19.000Z,990.3
2023-03-24T05:14:35.000Z,990.2
2023-03-24T05:15:51.000Z,990.2
2023-03-24T05:17:07.000Z,990.3
2023-03-24T05:18:23.000Z,990.2
2023-03-24T05:19:39.000Z,990.3
2023-03-24T05:20:55.000Z,990.3
2023-03-24T05:22:11.000Z,990.3
2023-03-24T05:23:27.000Z,990.3
2023-03-24T05:24:43.000Z,990.3
2023-03-24T05:25:59.000Z,990.3
2023-03-24T05:27:15.000Z,990.2
2023-03-24T05:28:31.000Z,990.3
2023-03-24T05:29:48.000Z,990.3
2023-03-24T05:31:04.422Z,990.2
2023-03-24T05:32:20.000Z,990.3
2023-03-24T05:33:36.000Z,990.2
2023-03-24T05:34:52.000Z,990.1
2023-03-24T05:36:08.000Z,990.2
2023-03-24T05:37:23.000Z,990.2
2023-03-24T05:38:40.000Z,990.1
2023-03-24T05:39:56.000Z,990.1
2023-03-24T05:41:12.000Z,990.1
2023-03-24T05:42:28.000Z,990.1
2023-03-24T05:43:44.000Z,990
2023-03-24T05:45:00.000Z,989.9
2023-03-24T05:46:16.000Z,990
2023-03-24T05:47:33.000Z,990
2023-03-24T05:48:49.000Z,990
2023-03-24T05:50:05.000Z,990
2023-03-24T05:51:21.000Z,990
2023-03-24T05:52:37.000Z,990.1
2023-03-24T05:53:52.000Z,990.1
2023-03-24T05:55:09.000Z,990.1
2023-03-24T05:56:25.000Z,990.1
2023-03-24T05:57:41.536Z,990
2023-03-24T05:58:57.000Z,990.1
2023-03-24T06:00:13.000Z,990
2023-03-24T06:01:29.000Z,990
2023-03-24T06:02:45.000Z,989.9
2023-03-24T06:04:02.000Z,989.9
2023-03-24T06:05:18.000Z,989.9
2023-03-24T06:06:34.000Z,989.7
2023-03-24T06:07:50.000Z,989.9
2023-03-24T06:09:06.000Z,989.9
2023-03-24T06:10:21.000Z,989.9
2023-03-24T06:11:37.000Z,989.9
2023-03-24T06:12:54.000Z,989.9
2023-03-24T06:14:10.000Z,990.3
2023-03-24T06:15:26.000Z,990.1
2023-03-24T06:16:42.000Z,990.2
2023-03-24T06:17:58.000Z,990.1
2023-03-24T06:19:14.000Z,990.2
2023-03-24T06:20:30.000Z,990.2
2023-03-24T06:21:47.000Z,990.3
2023-03-24T06:23:03.000Z,990.4
2023-03-24T06:24:19.000Z,990.5
2023-03-24T06:25:35.000Z,990.5
2023-03-24T06:26:50.000Z,990.5
2023-03-24T06:28:06.000Z,990.6
2023-03-24T06:29:22.000Z,991
2023-03-24T06:30:39.355Z,990.8
2023-03-24T06:31:55.000Z,990.8
2023-03-24T06:33:11.000Z,990.7
2023-03-24T06:34:27.000Z,990.7
2023-03-24T06:35:43.000Z,990.7
2023-03-24T06:36:59.000Z,991
2023-03-24T06:38:16.000Z,990.7
2023-03-24T06:39:32.000Z,990.7
2023-03-24T06:40:48.000Z,990.8
2023-03-24T06:42:04.000Z,990.9
2023-03-24T06:43:19.000Z,990.9
2023-03-24T06:44:35.000Z,990.9
2023-03-24T06:45:51.000Z,991.1
2023-03-24T06:47:08.000Z,991
2023-03-24T06:48:24.000Z,991.1
2023-03-24T06:49:40.000Z,991.2
2023-03-24T06:50:56.000Z,991.2
2023-03-24T06:52:12.000Z,991.2
2023-03-24T06:53:28.988Z,991.3
2023-03-24T06:54:44.000Z,991.3
2023-03-24T06:56:01.000Z,991.3
2023-03-24T06:57:17.000Z,991.3
2023-03-24T06:58:33.574Z,991.4
2023-03-24T06:59:48.732Z,991.3
2023-03-24T07:01:04.877Z,991.3
2023-03-24T07:02:20.000Z,991.4
2023-03-24T07:03:36.000Z,991.5
2023-03-24T07:04:53.000Z,991.4
2023-03-24T07:06:09.462Z,991.4
2023-03-24T07:07:25.000Z,991.4
2023-03-24T07:08:41.000Z,991.5
2023-03-24T07:09:57.000Z,991.5
2023-03-24T07:11:13.000Z,991.6
2023-03-24T07:12:30.184Z,991.5
2023-03-24T07:13:46.334Z,991.6
2023-03-24T07:15:02.000Z,991.6
2023-03-24T07:16:17.000Z,991.7
2023-03-24T07:17:33.000Z,991.7
2023-03-24T07:18:49.000Z,991.6
2023-03-24T07:20:05.000Z,991.7
2023-03-24T07:21:21.000Z,991.7
2023-03-24T07:22:38.000Z,991.6
2023-03-24T07:23:54.000Z,991.8
2023-03-24T07:25:10.000Z,991.7
2023-03-24T07:26:26.000Z,991.8
2023-03-24T07:27:42.000Z,991.8
2023-03-24T07:28:58.000Z,991.8
2023-03-24T07:30:15.000Z,991.9
2023-03-24T07:31:31.000Z,991.8
2023-03-24T07:32:46.000Z,992
2023-03-24T07:34:02.000Z,991.9
2023-03-24T07:35:18.000Z,991.9
2023-03-24T07:36:34.978Z,992
2023-03-24T07:37:50.000Z,992
2023-03-24T07:39:07.000Z,992.1
2023-03-24T07:40:23.000Z,992.1
2023-03-24T07:41:39.000Z,992.2
2023-03-24T07:42:55.000Z,992.2
2023-03-24T07:44:11.000Z,992.2
2023-03-24T07:45:27.000Z,992.3
2023-03-24T07:46:43.000Z,992.3
2023-03-24T07:48:00.000Z,992.3
2023-03-24T07:49:15.000Z,992.2
2023-03-24T07:50:31.000Z,992.3
2023-03-24T07:51:47.000Z,992.3
2023-03-24T07:53:03.000Z,992.4
2023-03-24T07:54:19.000Z,992.5
2023-03-24T07:55:35.000Z,992.4
2023-03-24T07:56:52.000Z,992.5
2023-03-24T07:58:08.000Z,992.6
2023-03-24T07:59:24.000Z,992.7
2023-03-24T08:00:40.000Z,992.7
2023-03-24T08:01:56.000Z,992.6
2023-03-24T08:03:12.000Z,992.6
2023-03-24T08:04:28.000Z,992.4
2023-03-24T08:05:44.000Z,992.7
2023-03-24T08:07:00.000Z,992.6
2023-03-24T08:08:16.000Z,992.7
2023-03-24T08:09:32.000Z,992.9
2023-03-24T08:10:48.000Z,992.7
2023-03-24T08:12:04.000Z,992.9
2023-03-24T08:13:21.000Z,992.7
2023-03-24T08:14:37.000Z,992.9
2023-03-24T08:15:53.000Z,992.9
2023-03-24T08:17:09.000Z,992.8
2023-03-24T08:18:25.000Z,992.9
2023-03-24T08:19:41.000Z,992.9
2023-03-24T08:20:58.124Z,992.9
2023-03-24T08:22:13.000Z,993
2023-03-24T08:23:29.000Z,993
2023-03-24T08:24:45.000Z,993
2023-03-24T08:26:01.000Z,993.1
2023-03-24T08:27:17.000Z,993.2
2023-03-24T08:28:33.000Z,993.2
2023-03-24T08:29:48.000Z,993.1
2023-03-24T08:31:05.000Z,993.1
2023-03-24T08:32:21.000Z,993.1
2023-03-24T08:33:37.000Z,993.3
2023-03-24T08:34:53.000Z,993.4
2023-03-24T08:36:09.000Z,993.4
2023-03-24T08:37:25.000Z,993.4
2023-03-24T08:38:41.000Z,993.2
2023-03-24T08:39:58.000Z,993.3
2023-03-24T08:41:14.000Z,993.4
2023-03-24T08:42:30.000Z,993.4
2023-03-24T08:43:46.000Z,993.4
2023-03-24T08:45:02.000Z,993.5
2023-03-24T08:46:18.064Z,993.4
2023-03-24T08:47:33.000Z,993.4
2023-03-24T08:48:50.000Z,993.2
2023-03-24T08:50:06.000Z,993.4
2023-03-24T08:51:22.000Z,993.4
2023-03-24T08:52:38.000Z,993.5
2023-03-24T08:53:54.000Z,993.6
2023-03-24T08:55:10.000Z,993.5
2023-03-24T08:56:26.000Z,993.6
2023-03-24T08:57:43.000Z,993.7
2023-03-24T08:58:59.000Z,993.7
2023-03-24T09:00:15.663Z,993.7
2023-03-24T09:01:31.000Z,993.7
2023-03-24T09:02:46.000Z,993.7
2023-03-24T09:04:02.000Z,993.7
2023-03-24T09:05:19.000Z,993.6
2023-03-24T09:06:35.000Z,993.8
2023-03-24T09:07:51.000Z,993.8
2023-03-24T09:09:07.000Z,993.8
2023-03-24T09:10:23.000Z,993.8
2023-03-24T09:11:39.000Z,993.8
2023-03-24T09:12:55.000Z,993.8
2023-03-24T09:14:12.000Z,994
2023-03-24T09:15:28.000Z,994
2023-03-24T09:16:44.000Z,993.9
2023-03-24T09:18:00.000Z,993.9
2023-03-24T09:19:15.000Z,994
2023-03-24T09:20:31.000Z,994
2023-03-24T09:21:47.000Z,993.9
2023-03-24T09:23:04.000Z,994
2023-03-24T09:24:20.000Z,994
2023-03-24T09:25:36.000Z,994.1
2023-03-24T09:26:52.000Z,994
2023-03-24T09:28:08.000Z,993.9
2023-03-24T09:29:24.000Z,994
2023-03-24T09:30:40.000Z,994
2023-03-24T09:31:57.000Z,993.9
2023-03-24T09:33:13.000Z,994
2023-03-24T09:34:29.000Z,994.1
2023-03-24T09:35:44.000Z,994
2023-03-24T09:37:00.000Z,994
2023-03-24T09:38:16.000Z,994.1
2023-03-24T09:39:32.000Z,994.1
2023-03-24T09:40:49.000Z,994.1
2023-03-24T09:42:05.000Z,994.2
2023-03-24T09:43:21.000Z,994.1
2023-03-24T09:44:37.000Z,994.3
2023-03-24T09:45:53.000Z,994.1
2023-03-24T09:47:09.000Z,994.1
2023-03-24T09:48:26.000Z,994.2
2023-03-24T09:49:42.000Z,994.1
2023-03-24T09:50:58.000Z,994.2
2023-03-24T09:52:13.000Z,994.2
2023-03-24T09:53:29.000Z,994.4
2023-03-24T09:54:45.000Z,994.3
2023-03-24T09:56:01.000Z,994.6
2023-03-24T09:57:18.000Z,994.4
2023-03-24T09:58:34.416Z,994.5
2023-03-24T09:59:50.000Z,994.4
2023-03-24T10:01:06.000Z,994.4
2023-03-24T10:02:22.000Z,994.4
2023-03-24T10:03:38.000Z,994.4
2023-03-24T10:04:54.000Z,994.6
2023-03-24T10:06:11.000Z,994.6
2023-03-24T10:07:27.000Z,994.6
2023-03-24T10:08:42.596Z,994.6
2023-03-24T10:09:58.000Z,994.6
2023-03-24T10:11:14.000Z,994.7
2023-03-24T10:12:31.030Z,994.6
2023-03-24T10:13:46.000Z,994.7
2023-03-24T10:15:03.000Z,994.8
2023-03-24T10:16:19.000Z,994.7
2023-03-24T10:17:35.000Z,994.6
2023-03-24T10:18:51.000Z,994.7
2023-03-24T10:20:07.000Z,994.7
2023-03-24T10:21:23.000Z,994.8
2023-03-24T10:22:39.000Z,994.8
2023-03-24T10:23:56.000Z,994.8
2023-03-24T10:25:11.000Z,994.7
2023-03-24T10:26:27.000Z,994.7
2023-03-24T10:27:43.000Z,994.9
2023-03-24T10:28:59.000Z,994.8
2023-03-24T10:30:15.000Z,994.9
2023-03-24T10:31:32.000Z,995
2023-03-24T10:32:48.000Z,994.8
2023-03-24T10:34:04.000Z,994.8
2023-03-24T10:35:20.000Z,994.9
2023-03-24T10:36:36.000Z,994.9
2023-03-24T10:37:52.000Z,995
2023-03-24T10:39:08.000Z,994.9
2023-03-24T10:40:25.000Z,994.9
2023-03-24T10:41:40.000Z,994.8
2023-03-24T10:42:56.000Z,994.9
2023-03-24T10:44:12.000Z,995.2
2023-03-24T10:45:28.000Z,994.9
2023-03-24T10:46:44.000Z,994.9
2023-03-24T10:48:00.000Z,995
2023-03-24T10:49:17.000Z,995
2023-03-24T10:50:33.424Z,995.1
2023-03-24T10:51:49.000Z,995
2023-03-24T10:53:05.000Z,995.2
2023-03-24T10:54:21.000Z,995.1
2023-03-24T10:55:37.000Z,995
2023-03-24T10:56:53.000Z,995.1
2023-03-24T10:58:09.000Z,995.1
2023-03-24T10:59:25.000Z,995.1
2023-03-24T11:00:41.000Z,995.1
2023-03-24T11:01:57.000Z,995.2
2023-03-24T11:03:13.000Z,995.2
2023-03-24T11:04:29.000Z,995.2
2023-03-24T11:05:45.000Z,995.2
2023-03-24T11:07:02.000Z,995.2
2023-03-24T11:08:18.000Z,995.3
2023-03-24T11:09:34.000Z,995.2
2023-03-24T11:10:50.770Z,995.2
2023-03-24T11:12:06.916Z,995.2
2023-03-24T11:13:22.000Z,995.3
2023-03-24T11:14:37.000Z,995.3
2023-03-24T11:15:54.000Z,995.2
2023-03-24T11:17:10.000Z,995.3
2023-03-24T11:18:26.000Z,995.5
2023-03-24T11:19:42.000Z,995.5
2023-03-24T11:20:58.000Z,995.5
2023-03-24T11:22:14.000Z,995.4
2023-03-24T11:23:31.000Z,995.5
2023-03-24T11:24:47.000Z,995.5
2023-03-24T11:26:03.000Z,995.3
2023-03-24T11:27:19.000Z,995.4
2023-03-24T11:28:35.000Z,995.5
2023-03-24T11:29:51.968Z,995.5
2023-03-24T11:31:06.000Z,995.4
2023-03-24T11:32:23.000Z,995.4
2023-03-24T11:33:39.000Z,995.5
2023-03-24T11:34:55.000Z,995.4
2023-03-24T11:36:11.000Z,995.4
2023-03-24T11:37:27.000Z,995.6
2023-03-24T11:38:43.000Z,995.5
2023-03-24T11:39:59.000Z,995.6
2023-03-24T11:41:16.320Z,995.5
2023-03-24T11:42:32.000Z,995.6
2023-03-24T11:43:48.000Z,995.7
2023-03-24T11:45:04.000Z,995.7
2023-03-24T11:46:20.000Z,995.7
2023-03-24T11:47:35.000Z,995.7
2023-03-24T11:48:51.000Z,995.7
2023-03-24T11:50:08.000Z,995.6
2023-03-24T11:51:24.000Z,995.7
2023-03-24T11:52:40.000Z,995.7
2023-03-24T11:53:56.000Z,995.6
2023-03-24T11:55:12.000Z,995.8
2023-03-24T11:56:28.000Z,995.8
2023-03-24T11:57:44.000Z,995.8
2023-03-24T11:59:01.000Z,995.9
2023-03-24T12:00:17.000Z,995.8
2023-03-24T12:01:33.000Z,996
2023-03-24T12:02:49.000Z,996
2023-03-24T12:04:04.000Z,995.9
2023-03-24T12:05:20.000Z,996.1
2023-03-24T12:06:37.000Z,995.8
2023-03-24T12:07:53.000Z,995.9
2023-03-24T12:09:09.000Z,995.8
2023-03-24T12:10:25.000Z,995.9
2023-03-24T12:11:41.818Z,996
2023-03-24T12:12:57.000Z,995.9
2023-03-24T12:14:13.000Z,996
2023-03-24T12:15:30.000Z,996
2023-03-24T12:16:46.000Z,996
2023-03-24T12:18:02.000Z,996.1
2023-03-24T12:19:18.000Z,996.1
2023-03-24T12:20:33.000Z,996
2023-03-24T12:21:49.000Z,996
2023-03-24T12:23:05.000Z,996.1
2023-03-24T12:24:22.000Z,996.1
2023-03-24T12:25:38.000Z,996.1
2023-03-24T12:26:54.000Z,996.1
2023-03-24T12:28:10.000Z,996.1
2023-03-24T12:29:26.872Z,996.1
2023-03-24T12:30:42.000Z,996.1
2023-03-24T12:31:58.000Z,996.2
2023-03-24T12:33:15.000Z,996.1
2023-03-24T12:34:31.000Z,996.2
2023-03-24T12:35:47.000Z,996.1
2023-03-24T12:37:02.000Z,996.1
2023-03-24T12:38:18.000Z,996.1
2023-03-24T12:39:34.000Z,996.3
2023-03-24T12:40:50.000Z,996.2
2023-03-24T12:42:07.000Z,996.1
2023-03-24T12:43:23.000Z,996.2
2023-03-24T12:44:38.000Z,996.2
2023-03-24T12:45:54.000Z,996.1
2023-03-24T12:47:10.000Z,996
2023-03-24T12:48:26.000Z,996
2023-03-24T12:49:43.000Z,996.1
2023-03-24T12:50:59.000Z,996.2
2023-03-24T12:52:15.000Z,996.1
2023-03-24T12:53:31.000Z,996
2023-03-24T12:54:47.000Z,996.1
2023-03-24T12:56:03.000Z,996.1
2023-03-24T12:57:20.112Z,996.2
2023-03-24T12:58:36.000Z,996.3
2023-03-24T12:59:52.000Z,996.2
2023-03-24T13:01:07.000Z,996.3
2023-03-24T13:02:23.000Z,996.3
2023-03-24T13:03:39.000Z,996.3
2023-03-24T13:04:55.000Z,996.3
2023-03-24T13:06:11.000Z,996.3
2023-03-24T13:07:28.000Z,996.2
2023-03-24T13:08:44.000Z,996.3
2023-03-24T13:10:00.000Z,996.2
2023-03-24T13:11:16.000Z,996.1
2023-03-24T13:12:32.000Z,996.3
2023-03-24T13:13:48.000Z,996.4
2023-03-24T13:15:04.000Z,996.3
2023-03-24T13:16:21.000Z,996.2
2023-03-24T13:17:36.000Z,996.3
2023-03-24T13:18:52.000Z,996.3
2023-03-24T13:20:08.000Z,996.2
2023-03-24T13:21:24.000Z,996.2
2023-03-24T13:22:40.000Z,996.1
2023-03-24T13:23:56.000Z,996.3
2023-03-24T13:25:13.339Z,996.2
2023-03-24T13:26:29.000Z,996.2
2023-03-24T13:27:45.000Z,996.1
2023-03-24T13:29:01.000Z,996.2
2023-03-24T13:30:17.000Z,996.3
2023-03-24T13:31:33.000Z,996.2
2023-03-24T13:32:49.000Z,996.2
2023-03-24T13:34:05.000Z,996.3
2023-03-24T13:35:21.000Z,996.3
2023-03-24T13:36:37.000Z,996.2
2023-03-24T13:37:53.000Z,996.3
2023-03-24T13:39:09.000Z,996.4
2023-03-24T13:40:25.000Z,996.2
2023-03-24T13:41:42.000Z,996.4
2023-03-24T13:42:58.000Z,996.4
2023-03-24T13:44:14.533Z,996.4
2023-03-24T13:45:30.671Z,996.4
2023-03-24T13:46:46.000Z,996.3
2023-03-24T13:48:02.966Z,996.3
2023-03-24T13:49:18.000Z,996.3
2023-03-24T13:50:34.266Z,996.5
2023-03-24T13:51:50.000Z,996.4
2023-03-24T13:53:06.000Z,996.4
2023-03-24T13:54:22.000Z,996.4
2023-03-24T13:55:38.000Z,996.4
2023-03-24T13:56:54.000Z,996.7
2023-03-24T13:58:10.000Z,996.5
2023-03-24T13:59:27.000Z,996.6
2023-03-24T14:00:43.000Z,996.5
2023-03-24T14:01:59.000Z,996.5
2023-03-24T14:03:15.728Z,996.5
2023-03-24T14:04:31.000Z,996.5
2023-03-24T14:05:47.000Z,996.6
2023-03-24T14:07:02.000Z,996.5
2023-03-24T14:08:19.319Z,996.5
2023-03-24T14:09:35.000Z,996.4
2023-03-24T14:10:51.000Z,996.5
2023-03-24T14:12:07.000Z,996.5
2023-03-24T14:13:23.000Z,996.5
2023-03-24T14:14:39.000Z,996.6
2023-03-24T14:15:55.000Z,996.4
2023-03-24T14:17:12.000Z,996.5
2023-03-24T14:18:28.000Z,996.4
2023-03-24T14:19:44.000Z,996.5
2023-03-24T14:21:00.000Z,996.4
2023-03-24T14:22:16.000Z,996.4
2023-03-24T14:23:31.000Z,996.5
2023-03-24T14:24:47.000Z,996.5
2023-03-24T14:26:04.000Z,996.5
2023-03-24T14:27:20.000Z,996.6
2023-03-24T14:28:36.000Z,996.5
2023-03-24T14:29:52.000Z,996.4
2023-03-24T14:31:08.000Z,996.5
2023-03-24T14:32:24.000Z,996.6
2023-03-24T14:33:41.000Z,996.6
2023-03-24T14:34:57.000Z,996.5
2023-03-24T14:36:13.000Z,996.5
2023-03-24T14:37:29.000Z,996.4
2023-03-24T14:38:45.000Z,996.4
2023-03-24T14:40:00.000Z,996.4
2023-03-24T14:41:16.000Z,996.4
2023-03-24T14:42:33.000Z,996.3
2023-03-24T14:43:49.000Z,996.3
2023-03-24T14:45:05.567Z,996.4
2023-03-24T14:46:21.000Z,996.4
2023-03-24T14:47:37.000Z,996.3
2023-03-24T14:48:53.000Z,996.3
2023-03-24T14:50:10.142Z,996.3
2023-03-24T14:51:26.000Z,996.4
2023-03-24T14:52:42.438Z,996.3
2023-03-24T14:53:58.000Z,996.4
2023-03-24T14:55:14.000Z,996.3
2023-03-24T14:56:29.000Z,996.3
2023-03-24T14:57:45.000Z,996.3
2023-03-24T14:59:01.000Z,996.4
2023-03-24T15:00:18.000Z,996.3
2023-03-24T15:01:34.000Z,996.3
2023-03-24T15:02:50.620Z,996.3
2023-03-24T15:04:06.000Z,996.4
2023-03-24T15:05:22.000Z,996.4
2023-03-24T15:06:38.000Z,996.4
2023-03-24T15:07:54.000Z,996.4
2023-03-24T15:09:11.000Z,996.5
2023-03-24T15:10:27.000Z,996.4
2023-03-24T15:11:43.000Z,996.4
2023-03-24T15:12:58.000Z,996.3
2023-03-24T15:14:14.000Z,996.4
2023-03-24T15:15:30.000Z,996.4
2023-03-24T15:16:47.000Z,996.3
2023-03-24T15:18:03.000Z,996.4
2023-03-24T15:19:19.000Z,996.4
2023-03-24T15:20:35.665Z,996.4
2023-03-24T15:21:51.000Z,996.4
2023-03-24T15:23:07.000Z,996.3
2023-03-24T15:24:23.000Z,996.4
2023-03-24T15:25:40.000Z,996.4
2023-03-24T15:26:56.000Z,996.4
2023-03-24T15:28:12.000Z,996.3
2023-03-24T15:29:27.000Z,996.3
2023-03-24T15:30:43.000Z,996.4
2023-03-24T15:31:59.000Z,996.4
2023-03-24T15:33:15.000Z,996.3
2023-03-24T15:34:32.000Z,996.5
2023-03-24T15:35:48.000Z,996.2
2023-03-24T15:37:04.000Z,996.3
2023-03-24T15:38:20.000Z,996.3
2023-03-24T15:39:36.000Z,996.3
2023-03-24T15:40:52.000Z,996.3
2023-03-24T15:42:08.000Z,996.3
2023-03-24T15:43:25.000Z,996.2
2023-03-24T15:44:41.000Z,996.3
2023-03-24T15:45:56.000Z,996.2
2023-03-24T15:47:12.000Z,996.1
2023-03-24T15:48:28.000Z,996.2
2023-03-24T15:49:44.000Z,996.1
2023-03-24T15:51:00.000Z,996.2
2023-03-24T15:52:17.000Z,996.2
2023-03-24T15:53:33.000Z,996.1
2023-03-24T15:54:49.000Z,996.1
2023-03-24T15:56:05.000Z,996.1
2023-03-24T15:57:21.000Z,996.1
2023-03-24T15:58:37.000Z,996.1
2023-03-24T15:59:54.000Z,996.1
2023-03-24T16:01:10.000Z,996.1
2023-03-24T16:02:25.000Z,996
2023-03-24T16:03:41.000Z,996.1
2023-03-24T16:04:57.000Z,996
2023-03-24T16:06:13.000Z,996.1
2023-03-24T16:07:29.000Z,996.1
2023-03-24T16:08:46.000Z,996
2023-03-24T16:10:02.000Z,996
2023-03-24T16:11:18.000Z,996
2023-03-24T16:12:34.000Z,996
2023-03-24T16:13:50.000Z,996
2023-03-24T16:15:06.000Z,996.1
2023-03-24T16:16:22.000Z,996.1
2023-03-24T16:17:39.309Z,996
2023-03-24T16:18:54.000Z,996
2023-03-24T16:20:10.000Z,996.1
2023-03-24T16:21:26.000Z,996
2023-03-24T16:22:42.910Z,996
2023-03-24T16:23:59.057Z,995.9
2023-03-24T16:25:14.000Z,996
2023-03-24T16:26:31.000Z,996